Decoded Metar for KLLJ (CHALLIS in ID, USA) (IATA:LLJ) | Meteo·Mobile Aviation Weather
aviador You're here:

KLLJ Decoded Metar

CHALLIS in ID, USA
Report Time2018-09-23 19:55:00
UTC Time2018-09-23 20:27:13
Flight Rules vfr VFR
Wind050° at 07 kt
W.Decomp.*RWY 34: 4.2 kt HW 5.6 kt RCW
W.Rank050° ranks 29
Current wind is above 050° avg. (4.3)
Visibility9999 m
Phenomena:N/A
Clouds:Few 110 Hf
Expected CloudBase > 4,800 ft AGL from Temp-Dew spread
CeilingNone
Temp18°C (ISA +13)
Dew Point06°C (46% RH)
AAT14.6°C
QNH1015 hPa
Density Alt6,614 ft
Elevation5,039 ft
Report Wrong Elevation
Raw Report
KLLJ 231955Z AUTO 05007KT 10SM FEW110 18/06 A2996 RMK AO2
RAB1859E22 SLP097 P0002 T01780056 $=

Extra information for KLLJ:More info

Metar Taf Metar & Taf Last 4 Metars F.Rules Stats Wind Profile Meteogram Temp Stats Airport Information Weather charts Add Link Nearby VenuesMetar ALERT Operation Metar Decoded Social comments

AIRNAV info for KLLJ